createdAt,value
2022-12-08T00:00:12.721Z,100.00
2022-12-08T00:03:01.979Z,100.00
2022-12-08T00:05:50.419Z,100.00
2022-12-08T00:08:37.644Z,100.00
2022-12-08T00:11:12.488Z,100.00
2022-12-08T00:13:43.273Z,100.00
2022-12-08T00:16:12.676Z,100.00
2022-12-08T00:18:43.041Z,100.00
2022-12-08T00:21:11.917Z,100.00
2022-12-08T00:23:41.756Z,100.00
2022-12-08T00:26:11.360Z,100.00
2022-12-08T00:28:40.442Z,100.00
2022-12-08T00:31:11.866Z,100.00
2022-12-08T00:33:41.186Z,100.00
2022-12-08T00:36:13.360Z,100.00
2022-12-08T00:38:45.050Z,100.00
2022-12-08T00:41:17.144Z,100.00
2022-12-08T00:43:46.498Z,100.00
2022-12-08T00:46:15.973Z,100.00
2022-12-08T00:48:45.918Z,100.00
2022-12-08T00:51:16.561Z,100.00
2022-12-08T00:53:46.531Z,100.00
2022-12-08T00:56:16.912Z,100.00
2022-12-08T00:58:46.969Z,100.00
2022-12-08T01:01:17.849Z,100.00
2022-12-08T01:03:48.818Z,100.00
2022-12-08T01:06:18.639Z,100.00
2022-12-08T01:08:50.008Z,100.00
2022-12-08T01:11:20.850Z,100.00
2022-12-08T01:13:51.135Z,100.00
2022-12-08T01:16:30.741Z,100.00
2022-12-08T01:19:01.937Z,100.00
2022-12-08T01:21:32.228Z,100.00
2022-12-08T01:24:03.654Z,100.00
2022-12-08T01:26:34.030Z,100.00
2022-12-08T01:29:05.992Z,100.00
2022-12-08T01:31:36.269Z,100.00
2022-12-08T01:34:06.392Z,100.00
2022-12-08T01:36:40.289Z,100.00
2022-12-08T01:39:17.341Z,100.00
2022-12-08T01:41:50.096Z,100.00
2022-12-08T01:44:20.067Z,100.00
2022-12-08T01:46:51.162Z,100.00
2022-12-08T01:49:29.786Z,100.00
2022-12-08T01:52:06.088Z,100.00
2022-12-08T01:54:42.096Z,100.00
2022-12-08T01:57:19.126Z,100.00
2022-12-08T01:59:59.203Z,100.00
2022-12-08T02:02:35.550Z,100.00
2022-12-08T02:05:08.865Z,100.00
2022-12-08T02:07:40.332Z,100.00
2022-12-08T02:10:15.239Z,100.00
2022-12-08T02:12:47.902Z,100.00
2022-12-08T02:15:20.169Z,100.00
2022-12-08T02:18:25.680Z,100.00
2022-12-08T02:21:13.075Z,100.00
2022-12-08T02:24:10.376Z,100.00
2022-12-08T02:27:12.466Z,100.00
2022-12-08T02:30:11.137Z,100.00
2022-12-08T02:32:57.448Z,100.00
2022-12-08T02:35:54.754Z,100.00
2022-12-08T02:38:46.380Z,100.00
2022-12-08T02:41:26.072Z,100.00
2022-12-08T02:44:06.484Z,100.00
2022-12-08T02:46:55.098Z,100.00
2022-12-08T02:49:38.106Z,100.00
2022-12-08T02:52:16.366Z,100.00
2022-12-08T02:54:53.030Z,100.00
2022-12-08T02:57:59.172Z,100.00
2022-12-08T03:00:37.235Z,100.00
2022-12-08T03:03:16.195Z,100.00
2022-12-08T03:05:57.336Z,100.00
2022-12-08T03:08:37.835Z,100.00
2022-12-08T03:11:21.319Z,100.00
2022-12-08T03:14:02.103Z,100.00
2022-12-08T03:16:36.363Z,100.00
2022-12-08T03:19:20.833Z,100.00
2022-12-08T03:21:55.523Z,100.00
2022-12-08T03:24:25.127Z,100.00
2022-12-08T03:27:00.988Z,100.00
2022-12-08T03:29:32.704Z,100.00
2022-12-08T03:32:13.299Z,100.00
2022-12-08T03:34:47.616Z,100.00
2022-12-08T03:37:17.732Z,100.00
2022-12-08T03:39:47.926Z,100.00
2022-12-08T03:42:17.961Z,100.00
2022-12-08T03:44:47.587Z,100.00
2022-12-08T03:47:16.861Z,100.00
2022-12-08T03:49:47.405Z,100.00
2022-12-08T03:52:18.341Z,100.00
2022-12-08T03:54:47.914Z,100.00
2022-12-08T03:57:18.179Z,100.00
2022-12-08T03:59:47.546Z,100.00
2022-12-08T04:02:17.253Z,100.00
2022-12-08T04:04:46.589Z,100.00
2022-12-08T04:07:16.505Z,100.00
2022-12-08T04:09:46.557Z,100.00
2022-12-08T04:12:17.063Z,100.00
2022-12-08T04:14:45.947Z,100.00
2022-12-08T04:17:14.955Z,100.00
2022-12-08T04:19:45.153Z,100.00
2022-12-08T04:22:15.066Z,100.00
2022-12-08T04:24:44.563Z,100.00
2022-12-08T04:27:14.685Z,100.00
2022-12-08T04:29:44.253Z,100.00
2022-12-08T04:32:14.598Z,100.00
2022-12-08T04:34:44.855Z,100.00
2022-12-08T04:37:14.786Z,100.00
2022-12-08T04:39:44.389Z,100.00
2022-12-08T04:42:13.761Z,100.00
2022-12-08T04:44:43.904Z,100.00
2022-12-08T04:47:13.766Z,100.00
2022-12-08T04:49:43.112Z,100.00
2022-12-08T04:52:12.637Z,100.00
2022-12-08T04:54:41.493Z,100.00
2022-12-08T04:57:11.686Z,100.00
2022-12-08T04:59:41.014Z,100.00
2022-12-08T05:02:10.582Z,100.00
2022-12-08T05:04:41.052Z,100.00
2022-12-08T05:07:10.147Z,100.00
2022-12-08T05:09:39.049Z,100.00
2022-12-08T05:12:09.387Z,100.00
2022-12-08T05:14:38.549Z,100.00
2022-12-08T05:17:09.886Z,100.00
2022-12-08T05:19:39.747Z,100.00
2022-12-08T05:22:09.182Z,100.00
2022-12-08T05:24:45.671Z,100.00
2022-12-08T05:27:18.006Z,100.00
2022-12-08T05:29:48.666Z,100.00
2022-12-08T05:32:18.204Z,100.00
2022-12-08T05:34:47.497Z,100.00
2022-12-08T05:37:17.264Z,100.00
2022-12-08T05:39:47.205Z,100.00
2022-12-08T05:42:20.511Z,100.00
2022-12-08T05:44:53.408Z,100.00
2022-12-08T05:47:22.306Z,100.00
2022-12-08T05:49:51.782Z,100.00
2022-12-08T05:52:20.784Z,100.00
2022-12-08T05:54:49.689Z,100.00
2022-12-08T05:57:18.353Z,100.00
2022-12-08T05:59:47.845Z,100.00
2022-12-08T06:02:17.148Z,100.00
2022-12-08T06:04:46.779Z,100.00
2022-12-08T06:07:16.526Z,100.00
2022-12-08T06:09:46.298Z,100.00
2022-12-08T06:12:16.559Z,100.00
2022-12-08T06:14:45.401Z,100.00
2022-12-08T06:17:14.503Z,100.00
2022-12-08T06:19:43.761Z,100.00
2022-12-08T06:22:12.797Z,100.00
2022-12-08T06:24:41.886Z,100.00
2022-12-08T06:27:10.780Z,100.00
2022-12-08T06:29:39.668Z,100.00
2022-12-08T06:32:08.615Z,100.00
2022-12-08T06:34:38.260Z,100.00
2022-12-08T06:37:07.477Z,100.00
2022-12-08T06:39:36.458Z,100.00
2022-12-08T06:42:23.881Z,100.00
2022-12-08T06:44:52.868Z,100.00
2022-12-08T06:47:26.168Z,100.00
2022-12-08T06:49:56.078Z,100.00
2022-12-08T06:52:25.177Z,100.00
2022-12-08T06:54:54.280Z,100.00
2022-12-08T06:57:24.599Z,100.00
2022-12-08T06:59:54.007Z,100.00
2022-12-08T07:02:22.741Z,100.00
2022-12-08T07:04:52.182Z,100.00
2022-12-08T07:07:20.665Z,100.00
2022-12-08T07:09:49.562Z,100.00
2022-12-08T07:12:18.751Z,100.00
2022-12-08T07:14:47.845Z,100.00
2022-12-08T07:17:16.872Z,100.00
2022-12-08T07:19:45.832Z,100.00
2022-12-08T07:22:14.622Z,100.00
2022-12-08T07:24:43.308Z,100.00
2022-12-08T07:27:11.992Z,100.00
2022-12-08T07:29:41.192Z,100.00
2022-12-08T07:32:10.283Z,100.00
2022-12-08T07:34:38.867Z,100.00
2022-12-08T07:37:08.274Z,100.00
2022-12-08T07:39:37.363Z,100.00
2022-12-08T07:42:06.354Z,100.00
2022-12-08T07:44:35.560Z,100.00
2022-12-08T07:47:05.574Z,100.00
2022-12-08T07:49:34.430Z,100.00
2022-12-08T07:52:04.073Z,100.00
2022-12-08T07:54:32.857Z,100.00
2022-12-08T07:57:03.901Z,100.00
2022-12-08T07:59:33.329Z,100.00
2022-12-08T08:02:23.026Z,100.00
2022-12-08T08:04:52.357Z,100.00
2022-12-08T08:07:21.574Z,100.00
2022-12-08T08:09:52.573Z,100.00
2022-12-08T08:12:36.475Z,100.00
2022-12-08T08:15:08.292Z,99.42
2022-12-08T08:17:38.490Z,98.03
2022-12-08T08:20:08.756Z,98.57
2022-12-08T08:22:37.558Z,98.79
2022-12-08T08:25:06.743Z,98.10
2022-12-08T08:27:36.655Z,98.34
2022-12-08T08:30:08.158Z,98.32
2022-12-08T08:32:38.302Z,98.59
2022-12-08T08:35:07.690Z,98.91
2022-12-08T08:37:36.637Z,98.51
2022-12-08T08:40:06.416Z,96.81
2022-12-08T08:42:35.325Z,96.49
2022-12-08T08:45:04.936Z,96.15
2022-12-08T08:47:33.513Z,95.71
2022-12-08T08:50:02.673Z,96.47
2022-12-08T08:52:31.921Z,96.84
2022-12-08T08:55:00.800Z,96.85
2022-12-08T08:57:29.691Z,96.84
2022-12-08T08:59:58.783Z,96.94
2022-12-08T09:02:28.130Z,97.13
2022-12-08T09:04:57.031Z,97.53
2022-12-08T09:07:26.586Z,89.48
2022-12-08T09:10:00.034Z,83.06
2022-12-08T09:12:30.610Z,78.89
2022-12-08T09:14:59.402Z,74.66
2022-12-08T09:17:27.982Z,73.87
2022-12-08T09:19:57.086Z,70.08
2022-12-08T09:22:25.762Z,70.32
2022-12-08T09:24:54.554Z,70.18
2022-12-08T09:27:23.242Z,69.77
2022-12-08T09:29:52.034Z,70.67
2022-12-08T09:32:20.810Z,71.26
2022-12-08T09:34:52.239Z,69.55
2022-12-08T09:37:21.286Z,68.67
2022-12-08T09:39:50.050Z,69.02
2022-12-08T09:42:55.289Z,69.83
2022-12-08T09:45:27.143Z,71.04
2022-12-08T09:48:13.345Z,70.55
2022-12-08T09:50:48.786Z,71.87
2022-12-08T09:53:35.345Z,71.64
2022-12-08T09:56:13.612Z,71.22
2022-12-08T09:58:57.038Z,71.05
2022-12-08T10:01:34.830Z,71.05
2022-12-08T10:04:04.537Z,70.94
2022-12-08T10:07:19.508Z,71.77
2022-12-08T10:09:57.308Z,68.83
2022-12-08T10:12:28.860Z,69.97
2022-12-08T10:15:14.234Z,69.50
2022-12-08T10:17:49.787Z,71.39
2022-12-08T10:20:26.461Z,68.19
2022-12-08T10:23:30.167Z,69.17
2022-12-08T10:26:02.440Z,67.87
2022-12-08T10:28:34.005Z,69.09
2022-12-08T10:31:02.597Z,67.30
2022-12-08T10:33:33.100Z,69.42
2022-12-08T10:36:05.267Z,68.08
2022-12-08T10:38:39.009Z,69.44
2022-12-08T10:41:10.421Z,66.96
2022-12-08T10:43:48.386Z,67.00
2022-12-08T10:46:22.981Z,62.76
2022-12-08T10:49:10.471Z,60.25
2022-12-08T10:51:42.457Z,58.22
2022-12-08T10:54:29.255Z,60.96
2022-12-08T10:56:58.548Z,57.16
2022-12-08T10:59:27.948Z,57.29
2022-12-08T11:01:57.569Z,56.87
2022-12-08T11:04:36.183Z,59.89
2022-12-08T11:07:06.618Z,57.48
2022-12-08T11:09:53.112Z,55.87
2022-12-08T11:12:23.111Z,56.58
2022-12-08T11:14:59.392Z,58.14
2022-12-08T11:17:35.956Z,57.77
2022-12-08T11:20:25.018Z,59.24
2022-12-08T11:22:56.724Z,59.43
2022-12-08T11:25:27.397Z,59.01
2022-12-08T11:28:02.102Z,56.92
2022-12-08T11:30:41.460Z,53.28
2022-12-08T11:33:30.735Z,52.55
2022-12-08T11:36:09.783Z,50.87
2022-12-08T11:38:44.481Z,48.24
2022-12-08T11:41:22.917Z,47.46
2022-12-08T11:44:28.496Z,44.11
2022-12-08T11:47:07.183Z,43.34
2022-12-08T11:49:42.174Z,41.94
2022-12-08T11:52:19.844Z,43.78
2022-12-08T11:54:52.168Z,41.73
2022-12-08T11:57:23.524Z,44.42
2022-12-08T11:59:55.281Z,42.99
2022-12-08T12:02:27.572Z,42.56
2022-12-08T12:05:08.211Z,44.59
2022-12-08T12:08:11.867Z,44.32
2022-12-08T12:11:12.960Z,46.05
2022-12-08T12:14:10.018Z,46.11
2022-12-08T12:16:47.771Z,48.21
2022-12-08T12:19:19.576Z,49.40
2022-12-08T12:21:55.729Z,50.77
2022-12-08T12:24:36.027Z,53.05
2022-12-08T12:27:25.573Z,53.70
2022-12-08T12:29:59.370Z,53.48
2022-12-08T12:32:49.249Z,54.77
2022-12-08T12:35:32.372Z,55.12
2022-12-08T12:38:31.082Z,55.64
2022-12-08T12:41:05.115Z,55.66
2022-12-08T12:43:36.210Z,54.15
2022-12-08T12:46:23.079Z,53.97
2022-12-08T12:48:52.946Z,53.66
2022-12-08T12:51:45.996Z,53.28
2022-12-08T12:54:26.562Z,52.44
2022-12-08T12:56:56.344Z,51.54
2022-12-08T12:59:32.747Z,50.70
2022-12-08T13:02:03.083Z,49.07
2022-12-08T13:04:36.253Z,48.66
2022-12-08T13:07:05.756Z,47.13
2022-12-08T13:09:39.511Z,48.18
2022-12-08T13:12:12.041Z,48.46
2022-12-08T13:14:51.846Z,46.11
2022-12-08T13:17:35.244Z,46.68
2022-12-08T13:20:07.457Z,46.21
2022-12-08T13:22:54.709Z,43.94
2022-12-08T13:25:45.507Z,44.88
2022-12-08T13:28:30.487Z,48.17
2022-12-08T13:30:59.332Z,50.57
2022-12-08T13:33:42.385Z,52.91
2022-12-08T13:36:26.428Z,54.82
2022-12-08T13:38:58.269Z,55.82
2022-12-08T13:41:43.564Z,56.89
2022-12-08T13:47:59.642Z,62.13
2022-12-08T13:59:24.642Z,65.79
2022-12-08T14:01:53.377Z,68.66
2022-12-08T14:07:14.043Z,70.89
2022-12-08T14:09:43.549Z,70.61
2022-12-08T14:12:28.010Z,70.67
2022-12-08T14:15:07.816Z,71.70
2022-12-08T14:17:39.933Z,71.96
2022-12-08T14:20:57.968Z,72.68
2022-12-08T14:23:24.504Z,72.89
2022-12-08T14:25:53.997Z,72.12
2022-12-08T14:28:23.510Z,74.92
2022-12-08T14:30:52.649Z,73.86
2022-12-08T14:33:21.504Z,75.97
2022-12-08T14:35:56.769Z,78.86
2022-12-08T14:38:26.427Z,78.08
2022-12-08T14:41:05.262Z,76.84
2022-12-08T14:43:34.535Z,77.00
2022-12-08T14:46:19.654Z,77.30
2022-12-08T14:48:49.847Z,78.41
2022-12-08T14:51:24.172Z,80.22
2022-12-08T14:54:00.688Z,82.50
2022-12-08T14:56:40.482Z,82.97
2022-12-08T14:59:25.783Z,81.94
2022-12-08T15:02:09.430Z,82.28
2022-12-08T15:04:40.558Z,83.10
2022-12-08T15:07:22.020Z,83.43
2022-12-08T15:10:11.424Z,80.07
2022-12-08T15:12:40.486Z,83.62
2022-12-08T15:15:09.074Z,84.52
2022-12-08T15:17:42.672Z,85.06
2022-12-08T15:20:35.340Z,84.37
2022-12-08T15:23:04.618Z,85.95
2022-12-08T15:25:33.818Z,84.71
2022-12-08T15:28:03.439Z,82.72
2022-12-08T15:30:32.013Z,84.16
2022-12-08T15:33:00.589Z,86.15
2022-12-08T15:35:29.377Z,85.64
2022-12-08T15:37:57.961Z,86.64
2022-12-08T15:40:27.569Z,83.61
2022-12-08T15:42:56.255Z,82.79
2022-12-08T15:45:32.732Z,83.06
2022-12-08T15:48:01.205Z,85.79
2022-12-08T15:50:29.890Z,84.05
2022-12-08T15:52:58.473Z,82.55
2022-12-08T15:55:27.463Z,81.94
2022-12-08T16:00:53.845Z,81.49
2022-12-08T16:09:38.837Z,85.12
2022-12-08T16:13:19.931Z,84.70
2022-12-08T16:18:17.634Z,86.93
2022-12-08T16:23:42.863Z,84.28
2022-12-08T16:29:08.902Z,86.01
2022-12-08T16:31:37.501Z,88.00
2022-12-08T16:34:06.324Z,89.52
2022-12-08T16:36:34.904Z,89.93
2022-12-08T16:39:03.956Z,90.90
2022-12-08T16:41:51.219Z,91.09
2022-12-08T16:44:19.806Z,90.77
2022-12-08T16:46:48.490Z,91.63
2022-12-08T16:49:17.889Z,92.98
2022-12-08T16:51:46.881Z,93.07
2022-12-08T16:54:15.466Z,92.54
2022-12-08T16:56:44.153Z,93.36
2022-12-08T16:59:13.147Z,93.08
2022-12-08T17:01:42.122Z,93.28
2022-12-08T17:07:00.104Z,93.62
2022-12-08T17:09:33.075Z,93.60
2022-12-08T17:12:04.400Z,90.64
2022-12-08T17:14:36.184Z,90.54
2022-12-08T17:17:05.128Z,90.13
2022-12-08T17:19:34.371Z,92.61
2022-12-08T17:22:02.957Z,92.72
2022-12-08T17:24:32.154Z,93.22
2022-12-08T17:27:04.638Z,93.41
2022-12-08T17:29:34.969Z,93.78
2022-12-08T17:32:03.851Z,94.13
2022-12-08T17:34:32.642Z,94.42
2022-12-08T17:37:01.427Z,94.25
2022-12-08T17:39:30.104Z,94.49
2022-12-08T17:41:58.736Z,93.65
2022-12-08T17:44:28.497Z,94.32
2022-12-08T17:46:58.205Z,94.77
2022-12-08T17:49:29.983Z,94.80
2022-12-08T17:52:01.270Z,94.07
2022-12-08T17:54:30.406Z,93.12
2022-12-08T17:56:59.299Z,92.29
2022-12-08T17:59:29.007Z,92.09
2022-12-08T18:01:58.855Z,91.79
2022-12-08T18:04:28.218Z,92.32
2022-12-08T18:06:59.668Z,92.70
2022-12-08T18:09:30.826Z,92.79
2022-12-08T18:11:59.497Z,93.24
2022-12-08T18:14:28.084Z,92.88
2022-12-08T18:16:56.619Z,93.05
2022-12-08T18:19:26.578Z,93.47
2022-12-08T18:21:55.062Z,92.58
2022-12-08T18:24:24.360Z,92.60
2022-12-08T18:26:52.946Z,93.50
2022-12-08T18:29:22.936Z,92.54
2022-12-08T18:31:52.567Z,91.95
2022-12-08T18:34:21.353Z,91.08
2022-12-08T18:36:50.039Z,91.69
2022-12-08T18:39:24.358Z,92.43
2022-12-08T18:41:54.373Z,93.58
2022-12-08T18:44:23.161Z,93.94
2022-12-08T18:46:51.643Z,93.55
2022-12-08T18:49:20.944Z,94.81
2022-12-08T18:51:49.423Z,95.54
2022-12-08T18:54:18.114Z,94.87
2022-12-08T18:56:46.800Z,95.00
2022-12-08T18:59:16.301Z,94.12
2022-12-08T19:01:44.953Z,92.72
2022-12-08T19:04:28.379Z,92.23
2022-12-08T19:06:58.226Z,93.39
2022-12-08T19:09:27.112Z,94.00
2022-12-08T19:11:56.729Z,93.31
2022-12-08T19:14:28.583Z,93.74
2022-12-08T19:16:58.096Z,96.66
2022-12-08T19:19:28.416Z,97.11
2022-12-08T19:21:57.104Z,95.62
2022-12-08T19:24:26.364Z,96.02
2022-12-08T19:26:54.990Z,95.40
2022-12-08T19:29:23.667Z,96.83
2022-12-08T19:31:52.870Z,98.78
2022-12-08T19:34:21.756Z,99.31
2022-12-08T19:36:50.353Z,98.26
2022-12-08T19:39:40.337Z,99.99
2022-12-08T19:42:38.908Z,100.00
2022-12-08T19:45:20.340Z,100.00
2022-12-08T19:47:49.082Z,100.00
2022-12-08T19:50:36.594Z,99.76
2022-12-08T19:53:13.601Z,99.23
2022-12-08T19:55:43.613Z,98.63
2022-12-08T19:58:12.194Z,98.69
2022-12-08T20:00:41.704Z,98.40
2022-12-08T20:03:14.408Z,99.22
2022-12-08T20:05:44.202Z,99.99
2022-12-08T20:08:13.132Z,100.00
2022-12-08T20:10:43.708Z,100.00
2022-12-08T20:13:33.177Z,100.00
2022-12-08T20:16:01.688Z,100.00
2022-12-08T20:18:30.548Z,100.00
2022-12-08T20:20:59.645Z,100.00
2022-12-08T20:23:28.121Z,100.00
2022-12-08T20:25:57.221Z,100.00
2022-12-08T20:28:25.916Z,100.00
2022-12-08T20:30:54.439Z,100.00
2022-12-08T20:33:22.988Z,100.00
2022-12-08T20:36:03.159Z,100.00
2022-12-08T20:38:32.227Z,100.00
2022-12-08T20:41:01.002Z,100.00
2022-12-08T20:43:29.587Z,100.00
2022-12-08T20:45:58.281Z,100.00
2022-12-08T20:48:27.236Z,100.00
2022-12-08T20:50:56.166Z,100.00
2022-12-08T20:53:25.089Z,100.00
2022-12-08T20:55:53.732Z,100.00
2022-12-08T20:58:22.649Z,100.00
2022-12-08T21:00:51.272Z,100.00
2022-12-08T21:03:20.366Z,100.00
2022-12-08T21:05:51.188Z,100.00
2022-12-08T21:08:20.422Z,100.00
2022-12-08T21:10:58.477Z,99.93
2022-12-08T21:13:27.622Z,99.10
2022-12-08T21:15:56.772Z,98.42
2022-12-08T21:18:26.048Z,98.21
2022-12-08T21:21:02.934Z,100.00
2022-12-08T21:23:31.937Z,99.14
2022-12-08T21:26:00.639Z,99.60
2022-12-08T21:28:29.527Z,100.00
2022-12-08T21:30:58.472Z,100.00
2022-12-08T21:33:27.795Z,100.00
2022-12-08T21:36:11.788Z,100.00
2022-12-08T21:38:41.192Z,100.00
2022-12-08T21:41:13.902Z,100.00
2022-12-08T21:43:43.507Z,100.00
2022-12-08T21:46:21.229Z,100.00
2022-12-08T21:48:50.642Z,100.00
2022-12-08T21:51:19.407Z,100.00
2022-12-08T21:53:48.754Z,100.00
2022-12-08T21:56:18.125Z,100.00
2022-12-08T21:58:47.427Z,100.00
2022-12-08T22:01:16.161Z,100.00
2022-12-08T22:03:45.572Z,100.00
2022-12-08T22:06:14.914Z,100.00
2022-12-08T22:08:43.848Z,100.00
2022-12-08T22:11:13.564Z,100.00
2022-12-08T22:13:43.467Z,100.00
2022-12-08T22:16:14.968Z,100.00
2022-12-08T22:18:44.215Z,100.00
2022-12-08T22:21:17.994Z,100.00
2022-12-08T22:23:47.120Z,100.00
2022-12-08T22:26:15.888Z,100.00
2022-12-08T22:28:45.449Z,100.00
2022-12-08T22:31:17.388Z,100.00
2022-12-08T22:33:46.503Z,100.00
2022-12-08T22:36:18.469Z,100.00
2022-12-08T22:38:47.876Z,100.00
2022-12-08T22:41:18.180Z,100.00
2022-12-08T22:43:48.209Z,100.00
2022-12-08T22:46:20.185Z,100.00
2022-12-08T22:48:50.089Z,100.00
2022-12-08T22:51:19.768Z,100.00
2022-12-08T22:53:49.100Z,100.00
2022-12-08T22:56:18.691Z,100.00
2022-12-08T22:58:47.925Z,100.00
2022-12-08T23:01:31.345Z,100.00
2022-12-08T23:04:01.548Z,100.00
2022-12-08T23:06:31.645Z,100.00
2022-12-08T23:09:00.671Z,100.00
2022-12-08T23:11:31.987Z,100.00
2022-12-08T23:14:01.578Z,100.00
2022-12-08T23:16:30.452Z,100.00
2022-12-08T23:18:59.676Z,100.00
2022-12-08T23:21:30.186Z,100.00
2022-12-08T23:24:01.521Z,100.00
2022-12-08T23:26:33.071Z,100.00
2022-12-08T23:29:02.264Z,100.00
2022-12-08T23:31:31.903Z,100.00
2022-12-08T23:34:02.617Z,100.00
2022-12-08T23:36:32.058Z,100.00
2022-12-08T23:39:01.504Z,100.00
2022-12-08T23:41:30.702Z,100.00
2022-12-08T23:43:59.982Z,100.00
2022-12-08T23:46:28.784Z,100.00
2022-12-08T23:48:58.843Z,100.00
2022-12-08T23:51:28.825Z,100.00
2022-12-08T23:53:58.031Z,100.00
2022-12-08T23:56:30.501Z,100.00
2022-12-08T23:59:01.303Z,100.00
